Time;durP1;ratioP1;P1;durP2;ratioP2;P2;SDS_P1;SDS_P2;PMS_P1;PMS_P2;Temp;Humidity;BMP_temperature;BMP_pressure;BME280_temperature;BME280_humidity;BME280_pressure;Samples;Min_cycle;Max_cycle;Signal;HPM_P1;HPM_P2
2021/07/26 00:02:26;;;;;;;;;;;16.60;99.90;;;;;;5095355;28;19924;-79
2021/07/26 00:04:52;;;;;;;;;;;16.60;99.90;;;;;;5095217;28;19928;-80
2021/07/26 00:07:21;;;;;;;;;;;16.60;99.90;;;;;;5095471;28;19935;-79
2021/07/26 00:09:47;;;;;;;;;;;16.50;99.90;;;;;;5095135;28;19924;-79
2021/07/26 00:12:14;;;;;;;;;;;16.50;99.90;;;;;;5095253;28;19924;-79
2021/07/26 00:14:41;;;;;;;;;;;16.40;99.90;;;;;;5095209;28;19923;-79
2021/07/26 00:17:08;;;;;;;;;;;16.40;99.90;;;;;;5095233;28;19934;-79
2021/07/26 00:19:35;;;;;;;;;;;16.40;99.90;;;;;;5095028;28;20250;-79
2021/07/26 00:22:02;;;;;;;;;;;16.40;99.90;;;;;;5095136;28;19924;-79
2021/07/26 00:24:30;;;;;;;;;;;16.40;99.90;;;;;;5094984;28;19928;-78
2021/07/26 00:26:57;;;;;;;;;;;16.40;99.90;;;;;;5095092;28;19924;-79
2021/07/26 00:29:24;;;;;;;;;;;16.30;99.90;;;;;;5095109;28;19931;-79
2021/07/26 00:31:50;;;;;;;;;;;16.30;99.90;;;;;;5095011;28;19934;-79
2021/07/26 00:34:20;;;;;;;;;;;16.30;99.90;;;;;;5095167;28;19925;-79
2021/07/26 00:36:47;;;;;;;;;;;16.30;99.90;;;;;;5095193;28;19924;-79
2021/07/26 00:39:14;;;;;;;;;;;16.30;99.90;;;;;;5099086;28;20234;-79
2021/07/26 00:41:42;;;;;;;;;;;16.30;99.90;;;;;;5099035;28;19935;-80
2021/07/26 00:44:09;;;;;;;;;;;16.30;99.90;;;;;;5098998;28;19935;-80
2021/07/26 00:46:36;;;;;;;;;;;16.40;99.90;;;;;;5098921;28;19934;-80
2021/07/26 00:49:04;;;;;;;;;;;16.40;99.90;;;;;;5098850;28;19931;-79
2021/07/26 00:51:31;;;;;;;;;;;16.40;99.90;;;;;;5098762;28;19924;-80
2021/07/26 00:53:58;;;;;;;;;;;16.40;99.90;;;;;;5098736;28;20262;-79
2021/07/26 00:56:25;;;;;;;;;;;16.50;99.90;;;;;;5098929;28;19924;-79
2021/07/26 00:58:53;;;;;;;;;;;16.50;99.90;;;;;;5098765;28;19935;-80
2021/07/26 01:01:20;;;;;;;;;;;16.50;99.90;;;;;;5098725;28;19928;-79
2021/07/26 01:03:47;;;;;;;;;;;16.60;99.90;;;;;;5098854;28;19924;-79
2021/07/26 01:06:13;;;;;;;;;;;16.60;99.90;;;;;;5098709;28;20246;-79
2021/07/26 01:08:40;;;;;;;;;;;16.60;99.90;;;;;;5098536;28;20273;-79
2021/07/26 01:11:07;;;;;;;;;;;16.70;99.90;;;;;;5098520;28;20357;-79
2021/07/26 01:13:35;;;;;;;;;;;16.70;99.90;;;;;;5098452;28;19930;-80
2021/07/26 01:16:03;;;;;;;;;;;16.70;99.90;;;;;;5098372;28;20022;-82
2021/07/26 01:18:30;;;;;;;;;;;16.70;99.90;;;;;;5098539;28;19984;-79
2021/07/26 01:20:58;;;;;;;;;;;16.80;99.90;;;;;;5098318;28;19924;-82
2021/07/26 01:23:26;;;;;;;;;;;16.80;99.90;;;;;;5098295;28;19924;-79
2021/07/26 01:25:52;;;;;;;;;;;16.80;99.90;;;;;;5098225;28;19939;-79
2021/07/26 01:28:20;;;;;;;;;;;16.80;99.90;;;;;;5098111;28;19938;-78
2021/07/26 01:30:47;;;;;;;;;;;16.80;99.90;;;;;;5098116;28;19924;-79
2021/07/26 01:33:15;;;;;;;;;;;16.80;99.90;;;;;;5098239;28;19924;-80
2021/07/26 01:35:41;;;;;;;;;;;16.70;99.90;;;;;;5098002;28;19924;-80
2021/07/26 01:38:10;;;;;;;;;;;16.70;99.90;;;;;;5097905;28;19930;-80
2021/07/26 01:40:38;;;;;;;;;;;16.80;99.90;;;;;;5098330;28;19934;-80
2021/07/26 01:43:05;;;;;;;;;;;16.80;99.90;;;;;;5097864;28;19924;-80
2021/07/26 01:45:32;;;;;;;;;;;16.80;99.90;;;;;;5098011;28;19924;-80
2021/07/26 01:48:00;;;;;;;;;;;16.80;99.90;;;;;;5097825;28;19960;-80
2021/07/26 01:50:27;;;;;;;;;;;16.80;99.90;;;;;;5096729;28;19924;-80
2021/07/26 01:52:54;;;;;;;;;;;16.80;99.90;;;;;;5097559;28;19924;-80
2021/07/26 01:55:22;;;;;;;;;;;16.80;99.90;;;;;;5097648;28;19934;-80
2021/07/26 01:57:49;;;;;;;;;;;16.80;99.90;;;;;;5097614;28;19931;-80
2021/07/26 02:00:16;;;;;;;;;;;16.80;99.90;;;;;;5097795;28;19924;-80
2021/07/26 02:02:43;;;;;;;;;;;16.80;99.90;;;;;;5097479;28;19930;-80
2021/07/26 02:05:11;;;;;;;;;;;16.80;99.90;;;;;;5097397;28;19928;-80
2021/07/26 02:07:37;;;;;;;;;;;16.80;99.90;;;;;;5097385;28;19924;-80
2021/07/26 02:10:05;;;;;;;;;;;16.90;99.90;;;;;;5097433;28;19924;-81
2021/07/26 02:12:33;;;;;;;;;;;16.90;99.90;;;;;;5097444;28;20264;-80
2021/07/26 02:15:00;;;;;;;;;;;16.90;99.90;;;;;;5097283;28;19939;-81
2021/07/26 02:17:27;;;;;;;;;;;16.90;99.90;;;;;;5097429;28;20019;-82
2021/07/26 02:19:54;;;;;;;;;;;16.90;99.90;;;;;;5097143;28;19924;-82
2021/07/26 02:22:21;;;;;;;;;;;17.00;99.90;;;;;;5097207;28;19924;-81
2021/07/26 02:24:48;;;;;;;;;;;17.00;99.90;;;;;;5097029;28;19931;-82
2021/07/26 02:27:15;;;;;;;;;;;17.00;99.90;;;;;;5097346;28;19924;-82
2021/07/26 02:29:43;;;;;;;;;;;17.00;99.90;;;;;;5096996;28;19977;-82
2021/07/26 02:32:10;;;;;;;;;;;17.00;99.90;;;;;;5096988;28;19928;-82
2021/07/26 02:34:37;;;;;;;;;;;16.90;99.90;;;;;;5096104;28;19931;-82
2021/07/26 02:37:04;;;;;;;;;;;16.90;99.90;;;;;;5096727;28;19924;-82
2021/07/26 02:39:30;;;;;;;;;;;16.90;99.90;;;;;;5096568;28;20276;-81
2021/07/26 02:41:57;;;;;;;;;;;16.90;99.90;;;;;;5096695;28;19924;-81
2021/07/26 02:44:24;;;;;;;;;;;16.90;99.90;;;;;;5096688;28;19924;-81
2021/07/26 02:46:52;;;;;;;;;;;16.90;99.90;;;;;;5096536;28;19924;-82
2021/07/26 02:49:19;;;;;;;;;;;16.90;99.90;;;;;;5096138;28;19928;-82
2021/07/26 02:51:46;;;;;;;;;;;16.90;99.90;;;;;;5096655;28;19924;-81
2021/07/26 02:54:13;;;;;;;;;;;16.90;99.90;;;;;;5096405;28;19924;-81
2021/07/26 02:56:40;;;;;;;;;;;17.00;99.90;;;;;;5096658;28;19928;-82
2021/07/26 02:59:07;;;;;;;;;;;17.00;99.90;;;;;;5096714;28;19924;-81
2021/07/26 03:01:34;;;;;;;;;;;17.00;99.90;;;;;;5096397;28;20354;-81
2021/07/26 03:04:02;;;;;;;;;;;17.00;99.90;;;;;;5096693;28;19924;-82
2021/07/26 03:06:29;;;;;;;;;;;17.00;99.90;;;;;;5096311;28;20256;-81
2021/07/26 03:08:56;;;;;;;;;;;17.00;99.90;;;;;;5096480;28;20272;-82
2021/07/26 03:11:23;;;;;;;;;;;17.00;99.90;;;;;;5096201;28;19924;-81
2021/07/26 03:13:50;;;;;;;;;;;17.00;99.90;;;;;;5096190;28;19928;-81
2021/07/26 03:16:16;;;;;;;;;;;17.00;99.90;;;;;;5096297;28;19924;-82
2021/07/26 03:18:45;;;;;;;;;;;17.00;99.90;;;;;;5095433;28;20191;-81
2021/07/26 03:21:17;;;;;;;;;;;17.00;99.90;;;;;;5096101;28;19923;-81
2021/07/26 03:23:44;;;;;;;;;;;17.00;99.90;;;;;;5096161;28;19924;-81
2021/07/26 03:26:10;;;;;;;;;;;17.00;99.90;;;;;;5095899;28;19938;-81
2021/07/26 03:28:37;;;;;;;;;;;17.00;99.90;;;;;;5096075;28;19934;-81
2021/07/26 03:31:04;;;;;;;;;;;17.00;99.90;;;;;;5096006;28;19924;-81
2021/07/26 03:33:31;;;;;;;;;;;17.00;99.90;;;;;;5095986;28;20268;-81
2021/07/26 03:35:58;;;;;;;;;;;17.00;99.90;;;;;;5095830;28;20261;-81
2021/07/26 03:38:26;;;;;;;;;;;17.00;99.90;;;;;;5095639;28;19924;-81
2021/07/26 03:40:53;;;;;;;;;;;17.00;99.90;;;;;;5095764;28;19935;-81
2021/07/26 03:43:20;;;;;;;;;;;17.00;99.90;;;;;;5095788;28;19924;-80
2021/07/26 03:45:47;;;;;;;;;;;17.00;99.90;;;;;;5095780;28;19924;-80
2021/07/26 03:48:13;;;;;;;;;;;17.00;99.90;;;;;;5095756;28;19951;-80
2021/07/26 03:50:41;;;;;;;;;;;17.00;99.90;;;;;;5095732;28;19966;-80
2021/07/26 03:53:07;;;;;;;;;;;17.00;99.90;;;;;;5095329;28;20327;-78
2021/07/26 03:55:36;;;;;;;;;;;17.00;99.90;;;;;;5095451;28;19924;-79
2021/07/26 03:58:03;;;;;;;;;;;16.90;99.90;;;;;;5095511;28;19924;-79
2021/07/26 04:00:30;;;;;;;;;;;16.90;99.90;;;;;;5095557;28;19939;-79
2021/07/26 04:03:04;;;;;;;;;;;16.90;99.90;;;;;;5095518;28;19935;-78
2021/07/26 04:05:35;;;;;;;;;;;16.90;99.90;;;;;;5095315;28;20223;-79
2021/07/26 04:08:03;;;;;;;;;;;16.90;99.90;;;;;;5095335;28;20349;-79
2021/07/26 04:10:30;;;;;;;;;;;16.90;99.90;;;;;;5095416;28;19977;-79
2021/07/26 04:12:58;;;;;;;;;;;16.80;99.90;;;;;;5094706;28;19931;-78
2021/07/26 04:15:25;;;;;;;;;;;16.80;99.90;;;;;;5095307;28;19924;-79
2021/07/26 04:17:52;;;;;;;;;;;16.80;99.90;;;;;;5095456;28;19934;-79
2021/07/26 04:20:19;;;;;;;;;;;16.80;99.90;;;;;;5095309;28;19928;-79
2021/07/26 04:22:45;;;;;;;;;;;16.80;99.90;;;;;;5095118;28;19942;-78
2021/07/26 04:25:13;;;;;;;;;;;16.70;99.90;;;;;;5094959;28;19935;-79
2021/07/26 04:27:39;;;;;;;;;;;16.70;99.90;;;;;;5095051;28;19977;-78
2021/07/26 04:30:08;;;;;;;;;;;16.70;99.90;;;;;;5095002;28;20258;-79
2021/07/26 04:32:41;;;;;;;;;;;16.60;99.90;;;;;;5095236;28;19924;-79
2021/07/26 04:35:09;;;;;;;;;;;16.60;99.90;;;;;;5094920;28;19931;-79
2021/07/26 04:37:35;;;;;;;;;;;16.60;99.90;;;;;;5095057;28;19934;-78
2021/07/26 04:40:02;;;;;;;;;;;16.60;99.90;;;;;;5095051;28;19935;-78
2021/07/26 04:42:29;;;;;;;;;;;16.60;99.90;;;;;;5094990;28;19924;-78
2021/07/26 04:44:56;;;;;;;;;;;16.60;99.90;;;;;;5094993;28;19925;-78
2021/07/26 04:47:24;;;;;;;;;;;16.60;99.90;;;;;;5094975;28;19935;-79
2021/07/26 04:49:51;;;;;;;;;;;16.50;99.90;;;;;;5094943;28;19935;-79
2021/07/26 04:52:18;;;;;;;;;;;16.50;99.90;;;;;;5094651;28;19924;-78
2021/07/26 04:54:45;;;;;;;;;;;16.50;99.90;;;;;;5094912;28;19931;-79
2021/07/26 04:57:11;;;;;;;;;;;16.50;99.90;;;;;;5094919;28;19924;-79
2021/07/26 04:59:38;;;;;;;;;;;16.50;99.90;;;;;;5094879;28;19950;-80
2021/07/26 05:02:06;;;;;;;;;;;16.50;99.90;;;;;;5094880;28;19924;-79
2021/07/26 05:04:34;;;;;;;;;;;16.50;99.90;;;;;;5094743;28;20353;-78
2021/07/26 05:07:01;;;;;;;;;;;16.60;99.90;;;;;;5094732;28;19928;-78
2021/07/26 05:09:28;;;;;;;;;;;16.60;99.90;;;;;;5094978;28;19935;-79
2021/07/26 05:11:55;;;;;;;;;;;16.60;99.90;;;;;;5094653;28;19932;-78
2021/07/26 05:14:22;;;;;;;;;;;16.60;99.90;;;;;;5094537;28;19927;-79
2021/07/26 05:16:49;;;;;;;;;;;16.60;99.90;;;;;;5094603;28;19924;-79
2021/07/26 05:19:16;;;;;;;;;;;16.60;99.90;;;;;;5094775;28;19924;-78
2021/07/26 05:21:44;;;;;;;;;;;16.70;99.90;;;;;;5094701;28;19924;-78
2021/07/26 05:24:11;;;;;;;;;;;16.70;99.90;;;;;;5096343;28;19928;-79
2021/07/26 05:26:38;;;;;;;;;;;16.70;99.90;;;;;;5098396;28;19924;-78
2021/07/26 05:29:04;;;;;;;;;;;16.70;99.90;;;;;;5098466;28;19924;-79
2021/07/26 05:31:31;;;;;;;;;;;16.70;99.90;;;;;;5098483;28;19928;-80
2021/07/26 05:33:58;;;;;;;;;;;16.70;99.90;;;;;;5098053;28;20284;-78
2021/07/26 05:36:25;;;;;;;;;;;16.80;99.90;;;;;;5097987;28;19924;-79
2021/07/26 05:38:53;;;;;;;;;;;16.70;99.90;;;;;;5098018;28;19928;-79
2021/07/26 05:41:20;;;;;;;;;;;16.70;99.90;;;;;;5098095;28;19924;-79
2021/07/26 05:43:47;;;;;;;;;;;16.70;99.90;;;;;;5098214;28;19935;-78
2021/07/26 05:46:14;;;;;;;;;;;16.70;99.90;;;;;;5098021;28;20266;-78
2021/07/26 05:48:41;;;;;;;;;;;16.80;99.90;;;;;;5097862;28;19936;-78
2021/07/26 05:51:07;;;;;;;;;;;16.80;99.90;;;;;;5098052;28;19925;-77
2021/07/26 05:53:34;;;;;;;;;;;16.80;99.90;;;;;;5097607;28;20355;-77
2021/07/26 05:56:06;;;;;;;;;;;16.90;99.90;;;;;;5097763;28;20364;-78
2021/07/26 05:58:41;;;;;;;;;;;16.90;99.90;;;;;;5098007;28;19931;-80
2021/07/26 06:01:22;;;;;;;;;;;17.00;99.90;;;;;;5097855;28;19979;-81
2021/07/26 06:03:49;;;;;;;;;;;17.10;99.90;;;;;;5097786;28;20239;-80
2021/07/26 06:06:16;;;;;;;;;;;17.10;99.90;;;;;;5097372;28;19924;-81
2021/07/26 06:08:42;;;;;;;;;;;17.20;99.90;;;;;;5097313;28;20265;-82
2021/07/26 06:11:11;;;;;;;;;;;17.30;99.90;;;;;;5097381;28;19924;-81
2021/07/26 06:13:38;;;;;;;;;;;17.40;99.90;;;;;;5097588;28;19930;-81
2021/07/26 06:16:05;;;;;;;;;;;17.60;99.90;;;;;;5097348;28;19934;-81
2021/07/26 06:18:32;;;;;;;;;;;17.70;99.90;;;;;;5097205;28;19931;-81
2021/07/26 06:20:59;;;;;;;;;;;18.00;99.90;;;;;;5097299;28;19924;-81
2021/07/26 06:23:26;;;;;;;;;;;18.10;99.90;;;;;;5097393;28;19931;-81
2021/07/26 06:25:53;;;;;;;;;;;18.20;99.90;;;;;;5097138;28;19930;-81
2021/07/26 06:28:21;;;;;;;;;;;18.30;99.90;;;;;;5097217;28;19942;-82
2021/07/26 06:30:48;;;;;;;;;;;18.20;99.90;;;;;;5096979;28;19924;-81
2021/07/26 06:33:15;;;;;;;;;;;18.30;99.90;;;;;;5097006;28;19924;-81
2021/07/26 06:35:42;;;;;;;;;;;18.40;99.90;;;;;;5096405;28;20331;-81
2021/07/26 06:38:08;;;;;;;;;;;18.50;99.90;;;;;;5097050;28;20314;-81
2021/07/26 06:40:36;;;;;;;;;;;18.50;99.90;;;;;;5096854;28;20334;-81
2021/07/26 06:43:02;;;;;;;;;;;18.60;99.90;;;;;;5096751;28;20030;-81
2021/07/26 06:45:32;;;;;;;;;;;18.70;99.90;;;;;;5096792;28;19930;-81
2021/07/26 06:47:59;;;;;;;;;;;18.60;99.90;;;;;;5096645;28;20024;-81
2021/07/26 06:50:26;;;;;;;;;;;18.60;99.90;;;;;;5096674;28;19934;-81
2021/07/26 06:52:53;;;;;;;;;;;18.50;99.90;;;;;;5096298;28;19936;-81
2021/07/26 06:55:20;;;;;;;;;;;18.50;99.90;;;;;;5096479;28;19924;-81
2021/07/26 06:57:47;;;;;;;;;;;18.40;99.90;;;;;;5096587;28;19934;-81
2021/07/26 07:00:14;;;;;;;;;;;18.40;99.90;;;;;;5096377;28;19924;-81
2021/07/26 07:02:42;;;;;;;;;;;18.40;99.90;;;;;;5096359;28;19924;-81
2021/07/26 07:05:10;;;;;;;;;;;18.50;99.90;;;;;;5096302;28;19924;-82
2021/07/26 07:07:37;;;;;;;;;;;18.60;99.90;;;;;;5096325;28;19924;-81
2021/07/26 07:10:04;;;;;;;;;;;19.20;99.90;;;;;;5096490;28;19930;-81
2021/07/26 07:12:31;;;;;;;;;;;20.20;99.90;;;;;;5096456;28;19924;-81
2021/07/26 07:14:57;;;;;;;;;;;21.00;99.90;;;;;;5096242;28;19924;-81
2021/07/26 07:17:24;;;;;;;;;;;21.60;99.90;;;;;;5096128;28;20261;-81
2021/07/26 07:19:53;;;;;;;;;;;22.40;99.90;;;;;;5096090;28;19928;-81
2021/07/26 07:22:20;;;;;;;;;;;22.90;99.90;;;;;;5096224;28;19938;-81
2021/07/26 07:24:46;;;;;;;;;;;23.10;99.90;;;;;;5096132;28;19924;-81
2021/07/26 07:27:13;;;;;;;;;;;23.10;99.90;;;;;;5095887;28;19934;-82
2021/07/26 07:29:40;;;;;;;;;;;22.60;99.90;;;;;;5095923;28;19924;-82
2021/07/26 07:32:11;;;;;;;;;;;22.00;99.90;;;;;;5095839;28;19946;-82
2021/07/26 07:34:38;;;;;;;;;;;21.50;99.90;;;;;;5096060;28;19993;-81
2021/07/26 07:37:08;;;;;;;;;;;21.00;99.90;;;;;;5095801;28;19924;-83
2021/07/26 07:39:35;;;;;;;;;;;20.60;99.90;;;;;;5098568;28;19981;-78
2021/07/26 07:42:02;;;;;;;;;;;20.20;99.90;;;;;;5116091;28;20026;-78
2021/07/26 07:44:32;;;;;;;;;;;19.90;99.90;;;;;;5116338;28;19934;-78
2021/07/26 07:46:59;;;;;;;;;;;19.70;99.90;;;;;;5115039;28;20349;-78
2021/07/26 07:49:26;;;;;;;;;;;19.60;99.90;;;;;;5116278;28;19924;-78
2021/07/26 07:51:53;;;;;;;;;;;19.50;99.90;;;;;;5115631;28;19975;-79
2021/07/26 07:54:21;;;;;;;;;;;19.40;99.90;;;;;;5116082;28;20018;-77
2021/07/26 07:56:48;;;;;;;;;;;19.40;99.90;;;;;;5115769;28;19935;-78
2021/07/26 07:59:15;;;;;;;;;;;19.40;99.90;;;;;;5115710;28;20246;-79
2021/07/26 08:01:43;;;;;;;;;;;19.40;99.90;;;;;;5115630;28;20341;-78
2021/07/26 08:04:10;;;;;;;;;;;19.30;99.90;;;;;;5115692;28;19924;-78
2021/07/26 08:06:40;;;;;;;;;;;19.20;99.90;;;;;;5115679;28;20264;-79
2021/07/26 08:09:07;;;;;;;;;;;19.20;99.90;;;;;;5115728;28;20257;-79
2021/07/26 08:11:36;;;;;;;;;;;19.30;99.90;;;;;;5115439;28;19924;-78
2021/07/26 08:14:02;;;;;;;;;;;19.30;99.90;;;;;;5115517;28;19927;-79
2021/07/26 08:16:31;;;;;;;;;;;19.40;99.90;;;;;;5115686;28;19924;-79
2021/07/26 08:18:58;;;;;;;;;;;19.50;99.90;;;;;;5115521;28;19931;-79
2021/07/26 08:21:26;;;;;;;;;;;19.70;99.90;;;;;;5115570;28;20357;-79
2021/07/26 08:23:53;;;;;;;;;;;19.80;99.90;;;;;;5115518;28;20272;-79
2021/07/26 08:26:21;;;;;;;;;;;19.80;99.90;;;;;;5115734;28;20257;-79
2021/07/26 08:28:50;;;;;;;;;;;19.90;99.90;;;;;;5115512;28;19924;-79
2021/07/26 08:31:16;;;;;;;;;;;19.80;99.90;;;;;;5115411;28;20329;-78
2021/07/26 08:33:43;;;;;;;;;;;19.80;99.90;;;;;;5115619;28;19936;-79
2021/07/26 08:36:10;;;;;;;;;;;19.70;99.90;;;;;;5115772;28;19946;-79
2021/07/26 08:38:37;;;;;;;;;;;19.60;99.90;;;;;;5115360;28;19924;-78
2021/07/26 08:41:04;;;;;;;;;;;19.50;99.90;;;;;;5115295;28;20022;-78
2021/07/26 08:43:31;;;;;;;;;;;19.50;99.90;;;;;;5115590;28;19934;-79
2021/07/26 08:46:00;;;;;;;;;;;19.40;99.90;;;;;;5115638;28;19923;-78
2021/07/26 08:48:27;;;;;;;;;;;19.30;99.90;;;;;;5115203;28;20353;-81
2021/07/26 08:50:54;;;;;;;;;;;19.30;99.90;;;;;;5114852;28;20349;-80
2021/07/26 08:53:21;;;;;;;;;;;19.30;99.90;;;;;;5115093;28;19934;-80
2021/07/26 08:55:48;;;;;;;;;;;19.30;99.90;;;;;;5115162;28;19931;-79
2021/07/26 08:58:15;;;;;;;;;;;19.30;99.90;;;;;;5120115;28;19934;-84
2021/07/26 09:00:43;;;;;;;;;;;19.30;99.90;;;;;;5125183;28;20010;-82
2021/07/26 09:03:12;;;;;;;;;;;19.30;99.90;;;;;;5119374;28;19924;-79
2021/07/26 09:05:39;;;;;;;;;;;19.30;99.90;;;;;;5119175;28;20397;-81
2021/07/26 09:08:06;;;;;;;;;;;19.40;99.90;;;;;;5119015;28;20019;-81
2021/07/26 09:10:35;;;;;;;;;;;19.40;99.90;;;;;;5119266;28;19975;-82
2021/07/26 09:13:02;;;;;;;;;;;19.60;99.90;;;;;;5118842;28;19930;-82
2021/07/26 09:15:30;;;;;;;;;;;19.80;99.90;;;;;;5118895;28;20353;-83
2021/07/26 09:17:57;;;;;;;;;;;19.80;99.90;;;;;;5118950;28;20367;-84
2021/07/26 09:20:28;;;;;;;;;;;20.00;99.90;;;;;;5118883;28;19923;-83
2021/07/26 09:22:56;;;;;;;;;;;20.00;99.90;;;;;;5118660;28;19924;-83
2021/07/26 09:25:23;;;;;;;;;;;19.90;99.90;;;;;;5118560;28;19931;-82
2021/07/26 09:27:57;;;;;;;;;;;19.90;99.90;;;;;;5118753;28;19934;-89
2021/07/26 09:30:24;;;;;;;;;;;20.00;99.90;;;;;;5119056;28;19928;-85
2021/07/26 09:32:51;;;;;;;;;;;20.00;99.90;;;;;;5118710;28;19924;-78
2021/07/26 09:35:17;;;;;;;;;;;20.00;99.90;;;;;;5118516;28;19934;-78
2021/07/26 09:37:46;;;;;;;;;;;20.00;99.90;;;;;;5118550;28;19928;-78
2021/07/26 09:40:22;;;;;;;;;;;19.90;99.90;;;;;;5118351;28;20276;-76
2021/07/26 09:42:49;;;;;;;;;;;19.90;99.90;;;;;;5118470;28;19924;-78
2021/07/26 09:45:19;;;;;;;;;;;19.90;99.90;;;;;;5118235;28;19943;-79
2021/07/26 09:47:49;;;;;;;;;;;19.80;99.90;;;;;;5118158;28;19942;-79
2021/07/26 09:50:18;;;;;;;;;;;19.80;99.90;;;;;;5118065;28;19924;-79
2021/07/26 09:52:47;;;;;;;;;;;19.80;99.90;;;;;;5118025;28;19923;-80
2021/07/26 09:55:13;;;;;;;;;;;19.80;99.90;;;;;;5118037;28;19931;-80
2021/07/26 09:57:43;;;;;;;;;;;19.80;99.90;;;;;;5118113;28;19930;-80
2021/07/26 10:00:12;;;;;;;;;;;19.90;99.90;;;;;;5118054;28;19923;-79
2021/07/26 10:02:39;;;;;;;;;;;20.00;99.90;;;;;;5117895;28;20345;-81
2021/07/26 10:05:06;;;;;;;;;;;20.10;99.90;;;;;;5117943;28;19923;-81
2021/07/26 10:07:33;;;;;;;;;;;20.20;99.90;;;;;;5117841;28;20379;-81
2021/07/26 10:10:01;;;;;;;;;;;20.30;99.90;;;;;;5117112;28;19924;-80
2021/07/26 10:12:28;;;;;;;;;;;20.30;99.90;;;;;;5117908;28;19930;-79
2021/07/26 10:14:54;;;;;;;;;;;20.30;99.90;;;;;;5117912;28;19961;-81
2021/07/26 10:17:21;;;;;;;;;;;20.30;99.90;;;;;;5117715;28;20038;-81
2021/07/26 10:19:48;;;;;;;;;;;20.40;99.90;;;;;;5117622;28;20269;-80
2021/07/26 10:22:17;;;;;;;;;;;20.40;99.90;;;;;;5117754;28;19946;-80
2021/07/26 10:24:46;;;;;;;;;;;20.50;99.90;;;;;;5117646;28;19928;-83
2021/07/26 10:27:15;;;;;;;;;;;20.50;99.90;;;;;;5117587;28;20368;-82
2021/07/26 10:29:51;;;;;;;;;;;20.50;99.90;;;;;;5117527;28;19923;-83
2021/07/26 10:32:34;;;;;;;;;;;20.70;99.90;;;;;;5117810;28;20238;-82
2021/07/26 10:35:01;;;;;;;;;;;20.70;99.90;;;;;;5117578;28;19946;-82
2021/07/26 10:37:46;;;;;;;;;;;20.70;99.90;;;;;;5117677;28;19924;-82
2021/07/26 10:40:20;;;;;;;;;;;20.80;99.90;;;;;;5117260;28;19924;-82
2021/07/26 10:42:48;;;;;;;;;;;20.90;99.90;;;;;;5117579;28;19932;-82
2021/07/26 10:45:30;;;;;;;;;;;20.90;99.90;;;;;;5117100;28;20341;-82
2021/07/26 10:48:12;;;;;;;;;;;21.00;99.90;;;;;;5114406;28;19924;-82
2021/07/26 10:50:39;;;;;;;;;;;21.00;99.90;;;;;;5116160;28;20353;-82
2021/07/26 10:53:05;;;;;;;;;;;21.10;99.90;;;;;;5116920;28;20060;-82
2021/07/26 10:55:57;;;;;;;;;;;21.00;99.90;;;;;;5116283;28;19924;-82
2021/07/26 10:58:42;;;;;;;;;;;21.20;99.90;;;;;;5116974;28;20242;-82
2021/07/26 11:01:25;;;;;;;;;;;21.20;99.90;;;;;;5116832;28;19983;-81
2021/07/26 11:03:54;;;;;;;;;;;21.20;99.90;;;;;;5116114;28;19934;-81
2021/07/26 11:06:36;;;;;;;;;;;21.10;99.90;;;;;;5116700;28;20367;-83
2021/07/26 11:09:17;;;;;;;;;;;21.20;99.90;;;;;;5115877;28;19923;-82
2021/07/26 11:11:44;;;;;;;;;;;21.10;99.90;;;;;;5115793;28;20289;-82
2021/07/26 11:14:12;;;;;;;;;;;21.20;99.90;;;;;;5116811;28;20248;-82
2021/07/26 11:16:59;;;;;;;;;;;21.30;99.90;;;;;;5113548;28;20014;-82
2021/07/26 11:19:34;;;;;;;;;;;21.30;99.90;;;;;;5111339;28;19934;-82
2021/07/26 11:22:01;;;;;;;;;;;21.40;99.90;;;;;;5116466;28;19924;-82
2021/07/26 11:24:53;;;;;;;;;;;21.40;99.90;;;;;;5116459;28;19924;-82
2021/07/26 11:27:41;;;;;;;;;;;21.30;99.90;;;;;;5091826;28;19924;-82
2021/07/26 11:30:10;;;;;;;;;;;21.20;99.90;;;;;;5116363;28;19950;-83
2021/07/26 11:32:38;;;;;;;;;;;21.10;99.90;;;;;;5116255;28;19924;-84
2021/07/26 11:35:07;;;;;;;;;;;21.10;99.90;;;;;;5116243;28;19932;-83
2021/07/26 11:37:34;;;;;;;;;;;21.10;99.90;;;;;;5116275;28;19924;-84
2021/07/26 11:40:04;;;;;;;;;;;21.10;99.90;;;;;;5116288;28;19934;-84
2021/07/26 11:42:31;;;;;;;;;;;21.10;99.90;;;;;;5116205;28;19978;-82
2021/07/26 11:44:58;;;;;;;;;;;21.20;99.90;;;;;;5115974;28;19924;-82
2021/07/26 11:47:31;;;;;;;;;;;21.20;99.90;;;;;;5115863;28;20277;-85
2021/07/26 11:49:58;;;;;;;;;;;21.20;99.90;;;;;;5115484;28;19923;-85
2021/07/26 11:52:26;;;;;;;;;;;21.10;99.90;;;;;;5115020;28;19934;-85
2021/07/26 11:54:53;;;;;;;;;;;21.10;99.90;;;;;;5115726;28;19932;-86
2021/07/26 11:57:20;;;;;;;;;;;21.10;99.90;;;;;;5115703;28;20375;-85
2021/07/26 11:59:50;;;;;;;;;;;21.10;99.90;;;;;;5115836;28;19934;-86
2021/07/26 12:02:23;;;;;;;;;;;21.10;99.90;;;;;;5115726;28;20364;-85
2021/07/26 12:04:50;;;;;;;;;;;21.10;99.90;;;;;;5116066;28;19996;-83
2021/07/26 12:07:19;;;;;;;;;;;21.10;99.90;;;;;;5115812;28;19924;-83
2021/07/26 12:09:51;;;;;;;;;;;21.10;99.90;;;;;;5115712;28;19927;-83
2021/07/26 12:12:18;;;;;;;;;;;21.20;99.90;;;;;;5115505;28;19924;-83
2021/07/26 12:14:45;;;;;;;;;;;21.30;99.90;;;;;;5114730;28;19924;-82
2021/07/26 12:17:13;;;;;;;;;;;21.20;99.90;;;;;;5115363;28;19924;-82
2021/07/26 12:19:40;;;;;;;;;;;21.30;99.90;;;;;;5115481;28;20379;-82
2021/07/26 12:22:27;;;;;;;;;;;21.30;99.90;;;;;;5115586;28;19946;-82
2021/07/26 12:24:59;;;;;;;;;;;21.40;99.90;;;;;;5107374;28;19924;-82
2021/07/26 12:27:27;;;;;;;;;;;21.40;99.90;;;;;;5115387;28;19969;-81
2021/07/26 12:29:58;;;;;;;;;;;21.50;99.90;;;;;;5115590;28;19923;-81
2021/07/26 12:32:24;;;;;;;;;;;21.50;99.90;;;;;;5115499;28;19934;-81
2021/07/26 12:35:10;;;;;;;;;;;21.50;99.90;;;;;;5118852;28;19924;-80
2021/07/26 12:37:37;;;;;;;;;;;21.60;99.90;;;;;;5119893;28;19930;-80
2021/07/26 12:40:22;;;;;;;;;;;21.60;99.90;;;;;;5119872;28;19936;-83
2021/07/26 12:42:56;;;;;;;;;;;21.60;99.90;;;;;;5119482;28;19997;-78
2021/07/26 12:45:24;;;;;;;;;;;21.60;99.90;;;;;;5118647;28;19924;-87
2021/07/26 12:47:52;;;;;;;;;;;21.70;99.90;;;;;;5119683;28;19966;-86
2021/07/26 12:50:19;;;;;;;;;;;21.80;99.90;;;;;;5119436;28;19993;-86
2021/07/26 12:52:46;;;;;;;;;;;21.90;99.90;;;;;;5119164;28;20357;-86
2021/07/26 12:55:14;;;;;;;;;;;22.00;99.90;;;;;;5119373;28;19924;-86
2021/07/26 12:57:41;;;;;;;;;;;22.20;99.90;;;;;;5119677;28;19924;-80
2021/07/26 13:00:10;;;;;;;;;;;22.20;99.90;;;;;;5118002;28;20333;-80
2021/07/26 13:02:37;;;;;;;;;;;22.20;99.90;;;;;;5119315;28;19934;-80
2021/07/26 13:05:04;;;;;;;;;;;22.30;99.90;;;;;;5119295;28;19936;-80
2021/07/26 13:07:30;;;;;;;;;;;22.30;99.90;;;;;;5119357;28;19923;-80
2021/07/26 13:09:57;;;;;;;;;;;22.20;99.90;;;;;;5118771;28;20249;-80
2021/07/26 13:12:24;;;;;;;;;;;22.20;99.90;;;;;;5118965;28;19923;-80
2021/07/26 13:14:51;;;;;;;;;;;22.20;99.90;;;;;;5118932;28;20080;-89
2021/07/26 13:17:19;;;;;;;;;;;22.20;99.90;;;;;;5121023;28;19924;-85
2021/07/26 13:19:46;;;;;;;;;;;22.10;99.90;;;;;;5121061;28;19928;-81
2021/07/26 13:22:13;;;;;;;;;;;22.10;99.90;;;;;;5121965;28;19930;-80
2021/07/26 13:24:40;;;;;;;;;;;22.10;99.90;;;;;;5122202;28;20008;-86
2021/07/26 13:27:07;;;;;;;;;;;22.10;99.90;;;;;;5118928;28;19988;-85
2021/07/26 13:29:34;;;;;;;;;;;22.00;99.90;;;;;;5118617;28;19923;-85
2021/07/26 13:32:01;;;;;;;;;;;22.10;99.90;;;;;;5118609;28;19930;-85
2021/07/26 13:34:29;;;;;;;;;;;22.10;99.90;;;;;;5118666;28;19924;-85
2021/07/26 13:36:56;;;;;;;;;;;22.10;99.90;;;;;;5118635;28;19927;-84
2021/07/26 13:39:23;;;;;;;;;;;22.20;99.90;;;;;;5118504;28;19923;-83
2021/07/26 13:41:52;;;;;;;;;;;22.30;99.90;;;;;;5118459;28;20031;-84
2021/07/26 13:44:19;;;;;;;;;;;22.40;99.90;;;;;;5117947;28;19928;-84
2021/07/26 13:46:46;;;;;;;;;;;22.50;99.90;;;;;;5117303;28;19928;-85
2021/07/26 13:49:13;;;;;;;;;;;22.60;99.90;;;;;;5118210;28;19924;-84
2021/07/26 13:51:41;;;;;;;;;;;22.70;99.90;;;;;;5118131;28;19923;-84
2021/07/26 13:54:08;;;;;;;;;;;22.70;99.90;;;;;;5118062;28;19923;-85
2021/07/26 13:56:35;;;;;;;;;;;22.90;99.90;;;;;;5118386;28;20018;-84
2021/07/26 13:59:02;;;;;;;;;;;22.90;99.90;;;;;;5118156;28;19934;-84
2021/07/26 14:01:29;;;;;;;;;;;23.00;99.90;;;;;;5118289;28;19924;-84
2021/07/26 14:03:56;;;;;;;;;;;23.10;99.90;;;;;;5118125;28;19946;-84
2021/07/26 14:06:23;;;;;;;;;;;23.10;99.90;;;;;;5118128;28;19924;-83
2021/07/26 14:08:51;;;;;;;;;;;23.20;99.90;;;;;;5118172;28;19934;-84
2021/07/26 14:11:18;;;;;;;;;;;23.20;99.90;;;;;;5117840;28;19924;-84
2021/07/26 14:13:45;;;;;;;;;;;23.20;99.90;;;;;;5117789;28;19934;-83
2021/07/26 14:16:11;;;;;;;;;;;23.20;99.90;;;;;;5117955;28;19923;-83
2021/07/26 14:18:38;;;;;;;;;;;23.20;99.90;;;;;;5117717;28;19934;-83
2021/07/26 14:21:05;;;;;;;;;;;23.10;99.90;;;;;;5117686;28;19924;-83
2021/07/26 14:23:32;;;;;;;;;;;23.00;99.90;;;;;;5117880;28;19924;-81